Time;durP1;ratioP1;P1;durP2;ratioP2;P2;SDS_P1;SDS_P2;PMS_P1;PMS_P2;Temp;Humidity;BMP_temperature;BMP_pressure;BME280_temperature;BME280_humidity;BME280_pressure;Samples;Min_cycle;Max_cycle;Signal;HPM_P1;HPM_P2
2022/06/04 00:00:42;;;;;;;17.60;16.10;;;17.60;99.90;;;;;;4940689;29;20452;-80
2022/06/04 00:03:09;;;;;;;17.70;16.30;;;17.60;99.90;;;;;;4941307;29;20460;-80
2022/06/04 00:05:38;;;;;;;17.30;15.90;;;17.60;99.90;;;;;;4940977;29;20895;-80
2022/06/04 00:08:07;;;;;;;18.47;16.80;;;17.60;99.90;;;;;;4941020;29;20484;-80
2022/06/04 00:16:10;;;;;;;19.27;17.63;;;17.50;99.90;;;;;;4939153;29;20532;-82
2022/06/04 00:18:38;;;;;;;18.13;16.20;;;17.40;99.90;;;;;;4948156;29;20506;-82
2022/06/04 00:21:05;;;;;;;18.07;16.50;;;17.40;99.90;;;;;;4947456;29;20449;-82
2022/06/04 00:23:32;;;;;;;17.40;16.00;;;17.50;99.90;;;;;;4948395;29;20479;-82
2022/06/04 00:26:00;;;;;;;19.17;17.83;;;17.50;99.90;;;;;;4948690;29;20462;-82
2022/06/04 00:28:29;;;;;;;18.30;16.80;;;17.50;99.90;;;;;;4947823;29;20484;-82
2022/06/04 00:30:58;;;;;;;16.40;14.93;;;17.50;99.90;;;;;;4947287;29;20459;-82
2022/06/04 00:33:25;;;;;;;16.17;14.80;;;17.40;99.90;;;;;;4947831;29;20463;-82
2022/06/04 00:35:55;;;;;;;17.60;15.97;;;17.40;99.90;;;;;;4947265;29;20471;-82
2022/06/04 00:38:24;;;;;;;18.03;16.20;;;17.40;99.90;;;;;;4947123;29;20484;-81
2022/06/04 00:40:54;;;;;;;16.43;15.10;;;17.30;99.90;;;;;;4947403;29;20479;-82
2022/06/04 00:43:22;;;;;;;15.60;14.00;;;17.30;99.90;;;;;;4947915;29;20461;-82
2022/06/04 00:46:30;;;;;;;16.17;14.87;;;17.30;99.90;;;;;;4946993;29;20455;-82
2022/06/04 00:48:58;;;;;;;16.30;14.90;;;17.30;99.90;;;;;;4946942;29;20482;-81
2022/06/04 00:51:27;;;;;;;15.83;14.60;;;17.20;99.90;;;;;;4947306;29;20453;-81
2022/06/04 00:53:56;;;;;;;16.23;14.93;;;17.20;99.90;;;;;;4946994;29;20992;-82
2022/06/04 00:56:31;;;;;;;15.67;14.37;;;17.20;99.90;;;;;;4946771;29;20480;-82
2022/06/04 01:01:28;;;;;;;20.47;18.67;;;17.20;99.90;;;;;;4940460;29;20535;-81
2022/06/04 01:04:06;;;;;;;18.93;17.13;;;17.20;99.90;;;;;;4960589;28;20494;-81
2022/06/04 01:06:48;;;;;;;15.60;14.30;;;17.10;99.90;;;;;;4957090;28;20952;-81
2022/06/04 01:09:35;;;;;;;17.50;16.10;;;17.20;99.90;;;;;;4949425;29;20458;-81
2022/06/04 01:12:25;;;;;;;18.67;17.07;;;17.10;99.90;;;;;;4958206;28;20458;-81
2022/06/04 01:15:09;;;;;;;17.47;15.77;;;17.10;99.90;;;;;;4960430;29;21111;-81
2022/06/04 01:17:46;;;;;;;17.77;16.27;;;17.10;99.90;;;;;;4948998;29;20482;-81
2022/06/04 01:20:24;;;;;;;18.23;16.70;;;17.00;99.90;;;;;;4941987;29;20998;-81
2022/06/04 01:23:11;;;;;;;17.97;16.23;;;17.00;99.90;;;;;;4960098;28;20463;-81
2022/06/04 01:25:48;;;;;;;16.67;15.27;;;17.00;99.90;;;;;;4955072;29;20495;-81
2022/06/04 01:28:17;;;;;;;17.67;15.97;;;17.10;99.90;;;;;;4941506;29;20454;-81
2022/06/04 01:30:48;;;;;;;18.30;16.70;;;17.10;99.90;;;;;;4944408;29;20479;-82
2022/06/04 01:33:20;;;;;;;19.00;17.30;;;17.00;99.90;;;;;;4949621;29;20467;-81
2022/06/04 01:35:51;;;;;;;17.43;16.03;;;17.10;99.90;;;;;;4944710;29;20456;-81
2022/06/04 01:38:24;;;;;;;17.47;16.00;;;17.00;99.90;;;;;;4958447;28;20475;-81
2022/06/04 01:41:07;;;;;;;17.27;15.97;;;17.00;99.90;;;;;;4959832;29;20486;-81
2022/06/04 01:43:39;;;;;;;16.90;15.50;;;17.00;99.90;;;;;;4954068;28;20480;-81
2022/06/04 01:46:14;;;;;;;17.47;15.50;;;17.00;99.90;;;;;;4957475;29;20969;-81
2022/06/04 01:48:45;;;;;;;17.43;16.13;;;16.90;99.90;;;;;;4953163;29;20456;-81
2022/06/04 01:51:17;;;;;;;17.40;16.10;;;16.90;99.90;;;;;;4939848;29;20495;-81
2022/06/04 01:53:47;;;;;;;19.07;17.47;;;16.80;99.90;;;;;;4944835;29;20457;-80
2022/06/04 01:56:20;;;;;;;17.10;15.60;;;16.80;99.90;;;;;;4956132;29;20545;-80
2022/06/04 01:58:54;;;;;;;17.57;16.20;;;16.80;99.90;;;;;;4938379;29;20964;-80
2022/06/04 02:01:24;;;;;;;18.40;16.80;;;16.80;99.90;;;;;;4938879;29;20490;-80
2022/06/04 02:03:57;;;;;;;18.77;17.27;;;16.80;99.90;;;;;;4957613;28;20446;-80
2022/06/04 02:06:27;;;;;;;18.70;17.00;;;16.70;99.90;;;;;;4955211;29;20462;-80
2022/06/04 02:08:58;;;;;;;19.70;18.03;;;16.70;99.90;;;;;;4938426;29;20537;-80
2022/06/04 02:11:26;;;;;;;17.33;15.93;;;16.70;99.90;;;;;;4939495;29;20456;-80
2022/06/04 02:14:00;;;;;;;18.70;17.20;;;16.70;99.90;;;;;;4938297;29;20458;-80
2022/06/04 02:16:32;;;;;;;18.50;16.80;;;16.70;99.90;;;;;;4955345;28;20458;-80
2022/06/04 02:19:00;;;;;;;17.30;15.77;;;16.60;99.90;;;;;;4962061;29;20464;-80
2022/06/04 02:21:28;;;;;;;17.30;15.60;;;16.60;99.90;;;;;;4944667;29;20825;-80
2022/06/04 02:23:56;;;;;;;17.47;16.17;;;16.50;99.90;;;;;;4942173;29;20466;-80
2022/06/04 02:26:24;;;;;;;16.07;14.80;;;16.50;99.90;;;;;;4957191;29;20460;-80
2022/06/04 02:28:52;;;;;;;15.23;14.03;;;16.50;99.90;;;;;;4960886;29;20459;-80
2022/06/04 02:31:29;;;;;;;15.93;14.83;;;16.50;99.90;;;;;;4945936;28;20508;-80
2022/06/04 02:34:03;;;;;;;15.53;14.13;;;16.50;99.90;;;;;;4953994;29;20839;-80
2022/06/04 02:36:36;;;;;;;16.93;15.53;;;16.50;99.90;;;;;;4961307;29;20450;-79
2022/06/04 02:39:11;;;;;;;15.00;13.80;;;16.50;99.90;;;;;;4952540;28;20455;-79
2022/06/04 02:41:43;;;;;;;15.27;14.00;;;16.40;99.90;;;;;;4959729;29;20463;-79
2022/06/04 02:44:20;;;;;;;17.30;15.80;;;16.40;99.90;;;;;;4953587;29;20454;-80
2022/06/04 02:46:52;;;;;;;16.57;15.00;;;16.40;99.90;;;;;;4960725;29;20454;-80
2022/06/04 02:49:24;;;;;;;15.10;14.00;;;16.40;99.90;;;;;;4954635;28;20479;-80
2022/06/04 02:51:55;;;;;;;15.43;14.33;;;16.40;99.90;;;;;;4949200;29;20454;-80
2022/06/04 02:54:26;;;;;;;14.70;13.50;;;16.40;99.90;;;;;;4955803;29;20458;-80
2022/06/04 02:56:54;;;;;;;15.73;14.33;;;16.40;99.90;;;;;;4960343;29;20459;-80
2022/06/04 02:59:24;;;;;;;16.10;14.80;;;16.30;99.90;;;;;;4951666;29;20487;-80
2022/06/04 03:01:54;;;;;;;15.33;14.00;;;16.30;99.90;;;;;;4948073;29;20456;-80
2022/06/04 03:04:21;;;;;;;15.37;14.07;;;16.40;99.90;;;;;;4956650;29;20462;-80
2022/06/04 03:06:48;;;;;;;15.10;13.80;;;16.30;99.90;;;;;;4954419;29;20474;-80
2022/06/04 03:09:18;;;;;;;14.90;13.70;;;16.30;99.90;;;;;;4940963;29;20541;-80
2022/06/04 03:11:46;;;;;;;15.53;14.23;;;16.40;99.90;;;;;;4941122;29;20460;-80
2022/06/04 03:14:15;;;;;;;14.33;13.23;;;16.40;99.90;;;;;;4941311;29;20465;-80
2022/06/04 03:16:44;;;;;;;15.43;14.33;;;16.40;99.90;;;;;;4945657;29;20461;-80
2022/06/04 03:19:13;;;;;;;15.43;14.03;;;16.40;99.90;;;;;;4956819;29;20457;-80
2022/06/04 03:21:41;;;;;;;14.30;13.10;;;16.40;99.90;;;;;;4955704;29;20482;-80
2022/06/04 03:24:09;;;;;;;14.93;13.73;;;16.40;99.90;;;;;;4941181;29;20485;-80
2022/06/04 03:26:36;;;;;;;14.43;13.23;;;16.40;99.90;;;;;;4942759;29;20987;-81
2022/06/04 03:29:04;;;;;;;14.73;13.43;;;16.40;99.90;;;;;;4945056;29;20808;-80
2022/06/04 03:31:31;;;;;;;13.53;12.33;;;16.50;99.90;;;;;;4957501;29;20458;-80
2022/06/04 03:33:58;;;;;;;14.10;12.80;;;16.50;99.90;;;;;;4960194;28;20550;-79
2022/06/04 03:36:26;;;;;;;15.67;14.30;;;16.40;99.90;;;;;;4944458;29;20450;-79
2022/06/04 03:38:56;;;;;;;16.33;14.80;;;16.40;99.90;;;;;;4941935;29;20470;-80
2022/06/04 03:41:23;;;;;;;15.33;14.03;;;16.30;99.90;;;;;;4941187;29;20509;-80
2022/06/04 03:43:52;;;;;;;15.53;14.13;;;16.30;99.90;;;;;;4960273;28;20453;-80
2022/06/04 03:46:19;;;;;;;17.80;15.90;;;16.30;99.90;;;;;;4943849;29;20494;-80
2022/06/04 03:48:45;;;;;;;16.33;15.00;;;16.30;99.90;;;;;;4942407;29;20483;-80
2022/06/04 03:51:12;;;;;;;16.97;15.13;;;16.30;99.90;;;;;;4959842;29;20481;-80
2022/06/04 03:53:40;;;;;;;19.63;17.97;;;16.30;99.90;;;;;;4958767;29;20449;-80
2022/06/04 03:56:07;;;;;;;18.47;16.97;;;16.40;99.90;;;;;;4940379;29;20447;-80
2022/06/04 03:58:34;;;;;;;18.33;16.67;;;16.50;99.90;;;;;;4940536;29;20458;-80
2022/06/04 04:01:01;;;;;;;16.93;15.53;;;16.50;99.90;;;;;;4943895;28;20485;-80
2022/06/04 04:03:27;;;;;;;15.00;13.70;;;16.60;99.90;;;;;;4944681;29;20817;-80
2022/06/04 04:05:56;;;;;;;15.47;14.20;;;16.70;99.90;;;;;;4940178;29;20487;-80
2022/06/04 04:08:25;;;;;;;15.00;13.67;;;16.80;99.90;;;;;;4953262;29;20461;-80
2022/06/04 04:10:53;;;;;;;14.93;13.63;;;16.90;99.90;;;;;;4959215;29;20501;-81
2022/06/04 04:13:21;;;;;;;13.67;12.53;;;17.00;99.90;;;;;;4946771;29;20460;-80
2022/06/04 04:15:47;;;;;;;15.13;13.73;;;17.00;99.90;;;;;;4940796;29;20482;-80
2022/06/04 04:18:15;;;;;;;13.40;12.40;;;17.00;99.90;;;;;;4951000;29;20456;-80
2022/06/04 04:20:45;;;;;;;13.90;12.60;;;17.00;99.90;;;;;;4958421;29;20478;-80
2022/06/04 04:23:11;;;;;;;12.93;11.63;;;17.00;99.90;;;;;;4947745;29;20483;-80
2022/06/04 04:25:38;;;;;;;13.10;12.00;;;17.10;99.90;;;;;;4940429;29;20496;-80
2022/06/04 04:28:07;;;;;;;13.37;12.37;;;17.20;99.90;;;;;;4949317;29;20451;-80
2022/06/04 04:30:36;;;;;;;12.50;11.40;;;17.20;99.90;;;;;;4958774;29;20472;-80
2022/06/04 04:33:04;;;;;;;12.50;11.50;;;17.30;99.90;;;;;;4958779;29;20482;-80
2022/06/04 04:35:33;;;;;;;14.00;12.63;;;17.30;99.90;;;;;;4947580;29;20458;-80
2022/06/04 04:38:00;;;;;;;12.60;11.70;;;17.40;99.90;;;;;;4959068;29;20816;-80
2022/06/04 04:40:29;;;;;;;11.57;10.57;;;17.50;99.90;;;;;;4955373;28;21017;-80
2022/06/04 04:42:56;;;;;;;13.00;11.90;;;17.50;99.90;;;;;;4940085;29;20451;-80
2022/06/04 04:45:25;;;;;;;10.07;9.23;;;17.70;99.90;;;;;;4943060;29;21029;-80
2022/06/04 04:47:53;;;;;;;10.60;9.80;;;17.80;99.90;;;;;;4958581;28;20459;-80
2022/06/04 04:50:23;;;;;;;12.70;11.60;;;17.80;99.90;;;;;;4961331;28;20850;-79
2022/06/04 04:52:50;;;;;;;10.47;9.57;;;17.70;99.90;;;;;;4950522;29;20452;-79
2022/06/04 04:55:18;;;;;;;10.00;9.13;;;17.80;99.90;;;;;;4955446;29;20462;-79
2022/06/04 04:57:44;;;;;;;9.67;8.80;;;17.90;99.90;;;;;;4968881;28;20459;-80
2022/06/04 05:00:13;;;;;;;9.53;8.80;;;18.10;99.90;;;;;;4963707;28;21009;-79
2022/06/04 05:02:41;;;;;;;9.23;8.53;;;18.20;99.90;;;;;;4950230;29;20457;-80
2022/06/04 05:05:09;;;;;;;10.20;9.43;;;18.40;99.90;;;;;;4953533;29;20507;-80
2022/06/04 05:07:36;;;;;;;10.57;9.60;;;18.40;99.90;;;;;;4952778;28;20456;-79
2022/06/04 05:10:03;;;;;;;11.27;10.37;;;18.50;99.90;;;;;;4930952;29;20980;-80
2022/06/04 05:12:30;;;;;;;11.63;10.73;;;18.40;99.90;;;;;;4929782;29;20464;-80
2022/06/04 05:14:57;;;;;;;11.43;10.30;;;18.60;99.90;;;;;;4965671;29;20461;-80
2022/06/04 05:17:24;;;;;;;10.67;9.70;;;18.70;99.90;;;;;;4961683;29;20463;-80
2022/06/04 05:19:52;;;;;;;11.50;10.53;;;18.70;99.90;;;;;;4948947;29;20481;-80
2022/06/04 05:22:18;;;;;;;10.47;9.47;;;18.80;99.90;;;;;;4951906;29;20459;-81
2022/06/04 05:24:45;;;;;;;9.93;9.13;;;19.00;99.90;;;;;;4960476;28;20459;-82
2022/06/04 05:27:12;;;;;;;9.97;9.27;;;19.10;99.90;;;;;;4956051;28;20490;-82
2022/06/04 05:29:39;;;;;;;9.50;8.70;;;19.30;99.90;;;;;;4955725;29;20942;-82
2022/06/04 05:32:07;;;;;;;9.90;8.47;;;19.50;99.90;;;;;;4957468;28;20460;-82
2022/06/04 05:34:34;;;;;;;9.67;8.87;;;19.50;99.90;;;;;;4941208;29;20512;-82
2022/06/04 05:37:03;;;;;;;9.33;8.60;;;19.60;99.90;;;;;;4941959;29;20451;-82
2022/06/04 05:39:31;;;;;;;9.43;8.73;;;19.70;99.90;;;;;;4941056;29;20492;-82
2022/06/04 05:41:59;;;;;;;9.40;8.60;;;19.80;99.90;;;;;;4956880;29;20461;-82
2022/06/04 05:44:26;;;;;;;7.93;7.33;;;19.90;99.90;;;;;;4959966;28;20455;-82
2022/06/04 05:46:53;;;;;;;9.27;8.60;;;19.80;99.90;;;;;;4944184;28;20485;-82
2022/06/04 05:49:20;;;;;;;8.50;7.80;;;19.80;99.90;;;;;;4957963;29;20481;-82
2022/06/04 05:51:48;;;;;;;7.50;6.80;;;19.80;99.90;;;;;;4945348;28;20975;-81
2022/06/04 05:54:16;;;;;;;7.63;7.13;;;19.60;99.90;;;;;;4949113;29;20458;-80
2022/06/04 05:56:46;;;;;;;6.70;6.20;;;19.50;99.90;;;;;;4961750;29;20460;-80
2022/06/04 05:59:16;;;;;;;7.63;7.10;;;19.20;99.90;;;;;;4965212;28;20471;-80
2022/06/04 06:01:44;;;;;;;7.30;6.23;;;19.20;99.90;;;;;;4948736;29;20450;-80
2022/06/04 06:04:13;;;;;;;7.93;7.17;;;19.00;99.90;;;;;;4949839;29;20450;-80
2022/06/04 06:06:42;;;;;;;8.40;7.60;;;18.90;99.90;;;;;;4968458;28;20499;-80
2022/06/04 06:09:12;;;;;;;6.53;6.03;;;18.80;99.90;;;;;;4950674;28;20464;-80
2022/06/04 06:11:42;;;;;;;8.80;8.10;;;18.60;99.90;;;;;;4951385;29;20465;-80
2022/06/04 06:14:09;;;;;;;7.67;7.07;;;18.40;99.90;;;;;;4967119;28;20459;-80
2022/06/04 06:16:39;;;;;;;7.77;6.97;;;18.30;99.90;;;;;;4964604;28;20474;-80
2022/06/04 06:19:06;;;;;;;9.00;8.20;;;18.10;99.90;;;;;;4946460;29;20463;-80
2022/06/04 06:21:35;;;;;;;10.07;9.03;;;17.90;99.90;;;;;;4947128;29;20463;-80
2022/06/04 06:24:02;;;;;;;9.90;9.00;;;17.80;99.90;;;;;;4961850;28;20464;-79
2022/06/04 06:26:31;;;;;;;13.37;11.80;;;17.60;99.90;;;;;;4947300;29;20487;-80
2022/06/04 06:29:01;;;;;;;13.03;11.67;;;17.60;99.90;;;;;;4964840;29;20949;-80
2022/06/04 06:31:29;;;;;;;11.70;10.70;;;17.50;99.90;;;;;;4960178;29;20903;-80
2022/06/04 06:33:56;;;;;;;13.13;12.03;;;17.40;99.90;;;;;;4956320;29;20462;-79
2022/06/04 06:36:23;;;;;;;13.47;12.17;;;17.40;99.90;;;;;;4947677;28;20457;-79
2022/06/04 06:38:51;;;;;;;12.70;11.70;;;17.40;99.90;;;;;;4957650;28;20466;-79
2022/06/04 06:41:20;;;;;;;13.23;11.90;;;17.40;99.90;;;;;;4943392;29;20475;-79
2022/06/04 06:43:49;;;;;;;13.07;11.90;;;17.50;99.90;;;;;;4938941;29;20458;-79
2022/06/04 06:46:20;;;;;;;13.50;12.20;;;17.60;99.90;;;;;;4952469;29;20541;-79
2022/06/04 06:48:50;;;;;;;14.60;13.40;;;17.80;99.90;;;;;;4953501;28;20465;-79
2022/06/04 06:51:20;;;;;;;14.80;13.50;;;18.00;99.90;;;;;;4939403;29;20480;-79
2022/06/04 06:53:46;;;;;;;13.20;12.03;;;18.20;99.90;;;;;;4945145;29;20451;-79
2022/06/04 06:56:15;;;;;;;14.53;13.23;;;18.30;99.90;;;;;;4958600;29;20452;-79
2022/06/04 06:58:42;;;;;;;12.33;10.97;;;18.40;99.90;;;;;;4954445;29;20972;-79
2022/06/04 07:01:11;;;;;;;12.80;11.63;;;18.60;99.90;;;;;;4982993;23;20503;-80
2022/06/04 07:03:40;;;;;;;13.57;12.23;;;18.60;99.90;;;;;;4980504;28;20460;-81
2022/06/04 07:06:09;;;;;;;15.87;14.47;;;18.40;99.90;;;;;;4983482;28;20490;-81
2022/06/04 07:08:37;;;;;;;12.60;11.50;;;18.60;99.90;;;;;;4954633;28;20461;-81
2022/06/04 07:11:04;;;;;;;14.20;12.90;;;18.60;99.90;;;;;;4977635;28;20557;-81
2022/06/04 07:13:31;;;;;;;12.77;11.53;;;18.70;99.90;;;;;;4964184;28;20478;-81
2022/06/04 07:15:58;;;;;;;12.53;11.30;;;18.70;99.90;;;;;;4967680;28;20459;-81
2022/06/04 07:18:25;;;;;;;15.43;14.13;;;18.50;99.90;;;;;;4945052;29;20459;-81
2022/06/04 07:20:55;;;;;;;17.03;15.57;;;18.30;99.90;;;;;;4950689;28;20498;-82
2022/06/04 07:23:22;;;;;;;15.40;14.00;;;18.20;99.90;;;;;;4963628;28;20816;-82
2022/06/04 07:25:50;;;;;;;15.97;14.57;;;18.10;99.90;;;;;;4981490;28;20581;-81
2022/06/04 07:28:17;;;;;;;17.90;16.40;;;18.00;99.90;;;;;;4981431;28;20478;-82
2022/06/04 07:30:43;;;;;;;16.90;15.40;;;18.00;99.90;;;;;;4980707;28;20476;-82
2022/06/04 07:33:10;;;;;;;16.10;14.70;;;18.00;99.90;;;;;;4978474;28;20466;-82
2022/06/04 07:35:37;;;;;;;18.07;15.23;;;18.10;99.90;;;;;;4980999;28;20459;-82
2022/06/04 07:38:05;;;;;;;16.60;15.10;;;18.30;99.90;;;;;;4964142;28;20462;-83
2022/06/04 07:40:32;;;;;;;15.10;13.83;;;18.60;99.90;;;;;;4961649;28;20481;-83
2022/06/04 07:42:58;;;;;;;12.57;11.60;;;18.90;99.90;;;;;;4979170;28;20840;-82
2022/06/04 07:45:25;;;;;;;10.60;9.90;;;19.20;99.90;;;;;;4968977;28;20465;-82
2022/06/04 07:47:52;;;;;;;11.27;10.47;;;19.50;99.90;;;;;;4981246;28;20486;-82
2022/06/04 07:50:19;;;;;;;11.30;10.30;;;19.80;99.90;;;;;;4969453;28;20478;-82
2022/06/04 07:52:46;;;;;;;11.97;10.77;;;20.10;99.90;;;;;;4962837;28;20460;-82
2022/06/04 07:55:14;;;;;;;11.30;10.27;;;20.40;99.90;;;;;;4981238;28;20454;-81
2022/06/04 07:57:41;;;;;;;12.50;11.50;;;20.60;99.90;;;;;;4980841;28;20483;-82
2022/06/04 08:00:09;;;;;;;10.10;9.23;;;20.70;99.90;;;;;;4942846;29;20474;-81
2022/06/04 08:02:36;;;;;;;9.63;8.93;;;20.80;99.90;;;;;;4943266;29;20460;-82
2022/06/04 08:05:03;;;;;;;8.43;7.80;;;20.50;99.90;;;;;;4972713;28;20827;-81
2022/06/04 08:07:30;;;;;;;11.20;10.20;;;20.40;99.90;;;;;;4961639;28;20496;-81
2022/06/04 08:09:57;;;;;;;10.10;9.23;;;20.30;99.90;;;;;;4961401;28;20488;-83
2022/06/04 08:12:29;;;;;;;10.57;9.77;;;20.40;99.90;;;;;;4961755;28;20952;-84
2022/06/04 08:14:56;;;;;;;8.80;8.10;;;20.20;99.90;;;;;;4967732;28;20467;-81
2022/06/04 08:17:23;;;;;;;10.00;9.17;;;20.30;99.90;;;;;;4979311;28;20454;-81
2022/06/04 08:19:50;;;;;;;9.80;9.00;;;20.50;99.90;;;;;;4974819;28;20500;-81
2022/06/04 08:22:17;;;;;;;10.40;9.57;;;20.70;99.90;;;;;;4979800;28;20555;-82
2022/06/04 08:24:44;;;;;;;9.13;8.43;;;20.70;99.90;;;;;;4974467;28;20464;-82
2022/06/04 08:27:11;;;;;;;9.73;8.60;;;20.80;99.90;;;;;;4962265;28;20495;-83
2022/06/04 08:29:39;;;;;;;9.90;9.10;;;20.90;99.90;;;;;;4965270;28;20474;-83
2022/06/04 08:32:07;;;;;;;10.23;9.50;;;21.10;99.90;;;;;;4971074;28;20454;-83
2022/06/04 08:34:34;;;;;;;13.50;9.70;;;21.40;99.90;;;;;;4973418;28;20460;-83
2022/06/04 08:37:01;;;;;;;9.07;8.47;;;21.50;99.90;;;;;;4980079;28;20450;-83
2022/06/04 08:39:29;;;;;;;8.90;8.30;;;21.70;99.90;;;;;;4972651;28;20459;-83
2022/06/04 08:42:07;;;;;;;8.47;7.77;;;22.00;99.90;;;;;;4964920;28;20444;-83
2022/06/04 08:44:36;;;;;;;9.13;8.43;;;22.20;99.90;;;;;;4976336;28;20470;-83
2022/06/04 08:47:12;;;;;;;8.97;8.27;;;22.40;99.90;;;;;;4960264;28;21022;-83
2022/06/04 08:49:42;;;;;;;7.90;7.40;;;22.60;99.90;;;;;;4966629;28;21004;-83
2022/06/04 08:52:13;;;;;;;8.50;7.70;;;22.70;99.90;;;;;;4959397;28;20448;-82
2022/06/04 08:57:33;;;;;;;9.60;8.70;;;22.90;99.90;;;;;;4960611;28;20439;-83
2022/06/04 09:00:07;;;;;;;8.93;8.20;;;22.90;99.90;;;;;;4966038;28;20490;-85
2022/06/04 09:02:56;;;;;;;9.70;8.80;;;22.70;99.90;;;;;;4954994;28;20456;-83
2022/06/04 09:05:31;;;;;;;7.87;7.37;;;22.90;99.90;;;;;;4956362;29;20469;-83
2022/06/04 09:08:03;;;;;;;10.90;8.83;;;22.90;99.90;;;;;;4957716;28;20579;-83
2022/06/04 09:10:35;;;;;;;12.60;11.60;;;22.60;99.90;;;;;;4957647;28;20476;-83
2022/06/04 09:13:09;;;;;;;9.13;8.53;;;22.60;99.90;;;;;;4959010;28;20453;-81
2022/06/04 09:15:41;;;;;;;10.00;9.27;;;22.50;99.90;;;;;;4958016;28;20456;-82
2022/06/04 09:18:16;;;;;;;9.87;9.07;;;22.80;99.90;;;;;;4958332;28;20445;-83
2022/06/04 09:20:46;;;;;;;11.30;10.40;;;23.10;99.90;;;;;;4957529;28;20486;-81
2022/06/04 09:23:18;;;;;;;10.20;9.30;;;23.30;99.90;;;;;;4969280;28;20805;-82
2022/06/04 09:25:48;;;;;;;10.77;8.93;;;23.40;99.90;;;;;;4974778;28;20478;-81
2022/06/04 09:28:26;;;;;;;9.50;8.70;;;23.60;99.90;;;;;;4956438;28;20477;-80
2022/06/04 09:31:05;;;;;;;9.77;9.00;;;23.50;99.90;;;;;;4956225;28;20472;-80
2022/06/04 09:33:43;;;;;;;8.73;8.07;;;23.40;99.90;;;;;;4956866;28;20516;-82
2022/06/04 09:36:12;;;;;;;7.97;7.43;;;23.90;99.90;;;;;;4958491;28;20457;-84
2022/06/04 09:38:39;;;;;;;8.90;8.20;;;24.40;99.90;;;;;;4961770;28;20453;-84
2022/06/04 09:41:18;;;;;;;9.43;8.73;;;24.60;99.90;;;;;;4961722;28;20498;-82
2022/06/04 09:43:46;;;;;;;10.60;9.70;;;24.60;99.90;;;;;;4961385;28;20540;-82
2022/06/04 09:46:14;;;;;;;9.70;8.90;;;24.80;99.90;;;;;;4960903;28;20462;-82
2022/06/04 09:48:52;;;;;;;8.00;7.47;;;25.00;99.90;;;;;;4961228;28;20455;-82
2022/06/04 09:51:22;;;;;;;7.70;7.00;;;25.20;99.90;;;;;;4961565;28;20493;-82
2022/06/04 09:53:51;;;;;;;8.43;6.47;;;25.40;99.90;;;;;;4960937;28;20454;-82
2022/06/04 09:56:35;;;;;;;7.30;6.80;;;25.60;99.90;;;;;;4960193;28;20466;-82
2022/06/04 09:59:18;;;;;;;7.30;6.80;;;26.00;99.90;;;;;;4961249;28;20461;-82
2022/06/04 10:01:53;;;;;;;7.87;7.27;;;26.40;99.90;;;;;;4959644;28;20450;-82
2022/06/04 10:04:23;;;;;;;8.63;7.93;;;26.60;99.90;;;;;;4960644;28;20463;-82
2022/06/04 10:06:50;;;;;;;6.93;6.40;;;26.60;99.90;;;;;;4959986;28;20495;-81
2022/06/04 10:12:07;;;;;;;9.07;8.43;;;25.90;99.90;;;;;;4959719;29;20434;-82
2022/06/04 10:14:37;;;;;;;10.17;9.47;;;25.20;99.90;;;;;;4960472;28;21022;-82
2022/06/04 10:17:05;;;;;;;10.53;9.83;;;24.30;99.90;;;;;;4960573;28;20456;-82
2022/06/04 10:19:34;;;;;;;10.13;9.43;;;23.40;99.90;;;;;;4960879;28;20460;-82
2022/06/04 10:22:10;;;;;;;11.77;10.77;;;22.90;99.90;;;;;;4960415;28;20452;-81
2022/06/04 10:24:48;;;;;;;12.00;11.20;;;22.80;99.90;;;;;;4960804;28;20463;-82
2022/06/04 10:27:28;;;;;;;11.87;10.97;;;22.50;99.90;;;;;;4960349;28;20495;-82
2022/06/04 10:30:05;;;;;;;10.23;9.43;;;22.40;99.90;;;;;;4960444;28;20489;-81
2022/06/04 10:32:45;;;;;;;10.93;9.93;;;22.10;99.90;;;;;;4960185;28;20467;-82
2022/06/04 10:35:20;;;;;;;12.87;11.87;;;22.00;99.90;;;;;;4960494;28;20458;-82
2022/06/04 10:38:01;;;;;;;13.00;11.90;;;21.80;99.90;;;;;;4960707;28;20981;-82
2022/06/04 10:40:51;;;;;;;12.60;11.60;;;21.80;99.90;;;;;;4963434;28;20473;-82
2022/06/04 10:43:35;;;;;;;15.70;14.40;;;21.60;99.90;;;;;;4968961;28;20899;-83
2022/06/04 10:46:08;;;;;;;17.00;15.60;;;21.50;99.90;;;;;;4965462;28;20464;-82
2022/06/04 10:48:49;;;;;;;19.00;17.53;;;21.50;99.90;;;;;;4977917;28;20486;-83
2022/06/04 10:51:28;;;;;;;15.53;14.33;;;21.50;99.90;;;;;;4981728;28;20477;-80
2022/06/04 10:54:07;;;;;;;12.60;11.70;;;21.50;99.90;;;;;;4971464;28;20453;-82
2022/06/04 10:56:46;;;;;;;14.00;12.17;;;21.40;99.90;;;;;;4978254;28;20473;-82
2022/06/04 10:59:20;;;;;;;13.07;12.03;;;21.50;99.90;;;;;;4968307;28;20450;-80
2022/06/04 11:01:53;;;;;;;13.67;12.53;;;21.60;99.90;;;;;;4968735;28;20450;-81
2022/06/04 11:04:33;;;;;;;15.07;13.87;;;21.50;99.90;;;;;;4967877;28;20465;-81
2022/06/04 11:07:12;;;;;;;14.00;12.90;;;21.50;99.90;;;;;;4948420;29;20493;-81
2022/06/04 11:09:42;;;;;;;14.33;13.23;;;21.50;99.90;;;;;;4967841;29;20470;-82
2022/06/04 11:12:22;;;;;;;13.80;12.60;;;21.30;99.90;;;;;;4968730;28;20486;-81
2022/06/04 11:14:52;;;;;;;12.90;11.80;;;21.20;99.90;;;;;;4969126;28;20453;-81
2022/06/04 11:17:24;;;;;;;19.13;13.13;;;21.20;99.90;;;;;;4968920;28;20449;-81
2022/06/04 11:19:59;;;;;;;13.73;12.53;;;21.20;99.90;;;;;;4968260;28;20486;-81
2022/06/04 11:22:31;;;;;;;13.10;12.00;;;21.00;99.90;;;;;;4967217;28;20461;-81
2022/06/04 11:25:03;;;;;;;13.50;12.50;;;20.90;99.90;;;;;;4981311;28;20455;-81
2022/06/04 11:27:34;;;;;;;13.00;12.00;;;20.80;99.90;;;;;;4975165;28;20481;-82
2022/06/04 11:30:04;;;;;;;15.33;14.03;;;20.80;99.90;;;;;;4981299;28;20470;-81
2022/06/04 11:32:41;;;;;;;16.27;14.70;;;20.80;99.90;;;;;;4973191;28;20469;-82
2022/06/04 11:35:36;;;;;;;17.07;15.67;;;21.00;99.90;;;;;;4970646;28;20458;-81
2022/06/04 11:38:25;;;;;;;15.07;13.87;;;20.70;99.90;;;;;;4964595;28;20457;-82
2022/06/04 11:41:03;;;;;;;15.13;14.03;;;20.80;99.90;;;;;;4973645;28;20468;-82
2022/06/04 11:43:44;;;;;;;15.73;14.30;;;20.90;99.90;;;;;;4980307;28;20445;-82
2022/06/04 11:46:23;;;;;;;15.20;13.87;;;20.90;99.90;;;;;;4977654;28;20950;-82
2022/06/04 11:49:01;;;;;;;16.63;15.33;;;20.90;99.90;;;;;;4980408;28;20486;-84
2022/06/04 11:51:49;;;;;;;16.10;14.70;;;21.00;99.90;;;;;;4950533;28;20477;-83
2022/06/04 11:54:35;;;;;;;16.60;15.30;;;21.20;99.90;;;;;;4976407;28;20466;-83
2022/06/04 11:57:10;;;;;;;17.03;15.50;;;21.40;99.90;;;;;;4967350;28;20450;-83
2022/06/04 11:59:49;;;;;;;19.33;17.80;;;21.40;99.90;;;;;;4953591;28;20485;-83
2022/06/04 12:02:24;;;;;;;15.83;14.63;;;21.50;99.90;;;;;;4975226;28;20458;-83
2022/06/04 12:05:05;;;;;;;18.47;16.90;;;21.60;99.90;;;;;;4975582;28;20512;-82
2022/06/04 12:07:38;;;;;;;18.93;17.23;;;21.80;99.90;;;;;;4980257;28;20541;-82
2022/06/04 12:10:20;;;;;;;15.43;14.33;;;21.70;99.90;;;;;;4964075;28;20520;-82
2022/06/04 12:12:56;;;;;;;18.97;17.47;;;22.10;99.90;;;;;;4966544;28;20467;-83
2022/06/04 12:15:30;;;;;;;19.87;18.27;;;22.40;99.90;;;;;;4969472;28;20463;-81
2022/06/04 12:18:00;;;;;;;17.27;15.93;;;22.70;99.90;;;;;;4968234;28;20456;-82
2022/06/04 12:26:20;;;;;;;19.30;17.80;;;23.20;99.90;;;;;;4969390;28;20499;-83
2022/06/04 12:28:47;;;;;;;18.73;17.37;;;23.60;99.90;;;;;;4970518;28;21073;-83
2022/06/04 12:31:14;;;;;;;17.53;16.23;;;23.90;99.90;;;;;;4964351;28;20481;-82
2022/06/04 12:33:49;;;;;;;17.93;16.63;;;24.60;99.90;;;;;;4966114;28;20492;-83
2022/06/04 12:36:26;;;;;;;17.80;16.30;;;25.60;99.90;;;;;;4971237;28;20513;-83
2022/06/04 12:39:00;;;;;;;14.00;12.87;;;26.80;99.90;;;;;;4970782;28;20447;-82
2022/06/04 12:41:41;;;;;;;15.27;14.10;;;27.30;99.90;;;;;;4963345;28;20475;-82
2022/06/04 12:44:24;;;;;;;12.67;11.77;;;27.70;98.50;;;;;;4959663;28;20475;-82
2022/06/04 12:46:52;;;;;;;12.83;11.93;;;28.40;97.70;;;;;;4974355;28;20455;-82
2022/06/04 12:49:32;;;;;;;15.13;13.93;;;28.70;96.20;;;;;;4949558;28;20496;-81
2022/06/04 12:52:05;;;;;;;15.23;14.13;;;28.90;95.60;;;;;;4960483;28;20461;-82
2022/06/04 12:54:44;;;;;;;14.60;13.60;;;29.90;94.50;;;;;;4968571;28;20453;-82
2022/06/04 12:57:23;;;;;;;14.77;13.77;;;30.70;92.60;;;;;;4969199;28;20543;-82
2022/06/04 12:59:52;;;;;;;15.77;14.57;;;30.90;90.90;;;;;;4972332;28;20468;-83
2022/06/04 13:02:30;;;;;;;14.87;13.90;;;30.80;89.90;;;;;;4980029;28;20481;-83
2022/06/04 13:05:17;;;;;;;14.97;13.87;;;31.30;89.90;;;;;;4981814;28;20461;-83
2022/06/04 13:07:59;;;;;;;12.20;11.30;;;30.70;90.10;;;;;;4959492;28;20494;-84
2022/06/04 13:10:32;;;;;;;14.07;13.10;;;31.60;89.90;;;;;;4962912;28;20482;-84